createdAt,value
2019-02-27T00:01:49.971Z,99.90
2019-02-27T00:04:20.638Z,99.90
2019-02-27T00:06:48.521Z,99.90
2019-02-27T00:09:16.133Z,99.90
2019-02-27T00:11:46.715Z,99.90
2019-02-27T00:14:14.338Z,99.90
2019-02-27T00:16:44.602Z,99.90
2019-02-27T00:19:11.641Z,99.90
2019-02-27T00:21:40.927Z,99.90
2019-02-27T00:24:08.826Z,99.90
2019-02-27T00:26:39.549Z,99.90
2019-02-27T00:29:06.924Z,99.90
2019-02-27T00:31:34.611Z,99.90
2019-02-27T00:34:02.274Z,99.90
2019-02-27T00:36:29.902Z,99.90
2019-02-27T00:38:57.912Z,99.90
2019-02-27T00:41:28.194Z,99.90
2019-02-27T00:43:55.810Z,99.90
2019-02-27T00:46:23.616Z,99.90
2019-02-27T00:48:51.241Z,99.90
2019-02-27T00:51:20.937Z,99.90
2019-02-27T00:53:48.764Z,99.90
2019-02-27T00:56:16.465Z,99.90
2019-02-27T00:58:47.202Z,99.90
2019-02-27T01:01:14.981Z,99.90
2019-02-27T01:03:42.632Z,99.90
2019-02-27T01:06:12.252Z,99.90
2019-02-27T01:08:40.094Z,99.90
2019-02-27T01:11:07.786Z,99.90
2019-02-27T01:13:35.431Z,99.90
2019-02-27T01:16:03.145Z,99.90
2019-02-27T01:18:31.410Z,99.90
2019-02-27T01:20:59.121Z,99.90
2019-02-27T01:23:28.681Z,99.90
2019-02-27T01:25:57.101Z,99.90
2019-02-27T01:28:24.814Z,99.90
2019-02-27T01:30:52.649Z,99.90
2019-02-27T01:33:20.452Z,99.90
2019-02-27T01:35:51.268Z,99.90
2019-02-27T01:38:17.684Z,99.90
2019-02-27T01:40:45.369Z,99.90
2019-02-27T01:43:12.996Z,99.90
2019-02-27T01:45:40.696Z,99.90
2019-02-27T01:48:10.576Z,99.90
2019-02-27T01:50:40.464Z,99.90
2019-02-27T01:53:08.829Z,99.90
2019-02-27T01:55:36.497Z,99.90
2019-02-27T01:58:09.181Z,99.90
2019-02-27T02:00:34.745Z,99.90
2019-02-27T02:03:05.309Z,99.90
2019-02-27T02:05:35.112Z,99.90
2019-02-27T02:08:02.904Z,99.90
2019-02-27T02:10:31.323Z,99.90
2019-02-27T02:13:15.176Z,99.90
2019-02-27T02:16:19.681Z,99.90
2019-02-27T02:19:22.022Z,99.90
2019-02-27T02:22:35.609Z,99.90
2019-02-27T02:25:46.329Z,99.90
2019-02-27T02:28:48.232Z,99.90
2019-02-27T02:31:43.082Z,99.90
2019-02-27T02:34:42.861Z,99.90
2019-02-27T02:37:42.538Z,99.90
2019-02-27T02:40:59.840Z,99.90
2019-02-27T02:43:48.036Z,99.90
2019-02-27T02:46:52.679Z,99.90
2019-02-27T02:49:47.750Z,99.90
2019-02-27T02:52:44.796Z,99.90
2019-02-27T02:55:49.099Z,99.90
2019-02-27T02:58:48.793Z,99.90
2019-02-27T03:01:38.072Z,99.90
2019-02-27T03:04:47.916Z,99.90
2019-02-27T03:07:44.721Z,99.90
2019-02-27T03:10:30.021Z,99.90
2019-02-27T03:13:41.663Z,99.90
2019-02-27T03:16:34.014Z,99.90
2019-02-27T03:19:26.389Z,99.90
2019-02-27T03:22:18.062Z,99.90
2019-02-27T03:25:40.699Z,99.90
2019-02-27T03:28:43.025Z,99.90
2019-02-27T03:31:36.999Z,99.90
2019-02-27T03:34:55.372Z,99.90
2019-02-27T03:38:00.111Z,99.90
2019-02-27T03:41:12.046Z,99.90
2019-02-27T03:44:07.958Z,99.90
2019-02-27T03:46:45.294Z,99.90
2019-02-27T03:50:04.068Z,99.90
2019-02-27T03:53:14.645Z,99.90
2019-02-27T03:56:28.197Z,99.90
2019-02-27T03:59:52.435Z,99.90
2019-02-27T04:02:44.674Z,99.90
2019-02-27T04:05:43.617Z,99.90
2019-02-27T04:08:43.571Z,99.90
2019-02-27T04:11:08.038Z,99.90
2019-02-27T04:13:36.177Z,99.90
2019-02-27T04:16:06.682Z,99.90
2019-02-27T04:18:33.753Z,99.90
2019-02-27T04:21:05.041Z,99.90
2019-02-27T04:23:34.047Z,99.90
2019-02-27T04:26:05.347Z,99.90
2019-02-27T04:28:40.717Z,99.90
2019-02-27T04:31:38.617Z,99.90
2019-02-27T04:34:18.019Z,99.90
2019-02-27T04:36:52.812Z,99.90
2019-02-27T04:39:21.852Z,99.90
2019-02-27T04:41:51.871Z,99.90
2019-02-27T04:44:18.916Z,99.90
2019-02-27T04:46:46.538Z,99.90
2019-02-27T04:49:14.136Z,99.90
2019-02-27T04:51:44.292Z,99.90
2019-02-27T04:54:18.847Z,99.90
2019-02-27T04:56:47.647Z,99.90
2019-02-27T04:59:25.817Z,99.90
2019-02-27T05:02:03.764Z,99.90
2019-02-27T05:04:35.148Z,99.90
2019-02-27T05:07:02.345Z,99.90
2019-02-27T05:09:31.412Z,99.90
2019-02-27T05:11:59.751Z,99.90
2019-02-27T05:14:30.873Z,99.90
2019-02-27T05:16:59.645Z,99.90
2019-02-27T05:19:27.716Z,99.90
2019-02-27T05:21:55.619Z,99.90
2019-02-27T05:24:23.395Z,99.90
2019-02-27T05:26:51.118Z,99.90
2019-02-27T05:29:18.945Z,99.90
2019-02-27T05:31:50.177Z,99.90
2019-02-27T05:34:19.036Z,99.90
2019-02-27T05:36:46.699Z,99.90
2019-02-27T05:39:14.933Z,99.90
2019-02-27T05:42:06.143Z,99.90
2019-02-27T05:44:44.488Z,99.90
2019-02-27T05:47:13.011Z,99.90
2019-02-27T05:49:40.739Z,99.90
2019-02-27T05:52:15.098Z,99.90
2019-02-27T05:57:48.786Z,99.90
2019-02-27T06:00:21.113Z,99.90
2019-02-27T06:02:52.090Z,99.90
2019-02-27T06:05:21.809Z,99.90
2019-02-27T06:07:52.208Z,99.90
2019-02-27T06:10:23.793Z,99.90
2019-02-27T06:12:58.436Z,99.90
2019-02-27T06:15:32.194Z,99.90
2019-02-27T06:23:26.156Z,99.90
2019-02-27T06:25:59.153Z,99.90
2019-02-27T06:28:52.063Z,99.90
2019-02-27T06:32:12.351Z,99.90
2019-02-27T06:34:43.308Z,99.90
2019-02-27T06:37:23.344Z,99.90
2019-02-27T06:39:54.149Z,99.90
2019-02-27T06:42:22.486Z,99.90
2019-02-27T06:45:06.956Z,99.90
2019-02-27T06:47:50.651Z,99.90
2019-02-27T06:50:39.374Z,99.90
2019-02-27T06:53:25.004Z,99.90
2019-02-27T06:55:53.915Z,99.90
2019-02-27T06:58:56.166Z,99.90
2019-02-27T07:01:33.437Z,99.90
2019-02-27T07:04:04.823Z,99.90
2019-02-27T07:06:32.678Z,99.90
2019-02-27T07:09:03.382Z,99.90
2019-02-27T07:11:53.769Z,99.90
2019-02-27T07:14:39.850Z,99.90
2019-02-27T07:17:09.259Z,99.90
2019-02-27T07:19:37.570Z,99.90
2019-02-27T07:22:06.245Z,99.90
2019-02-27T07:24:35.476Z,99.90
2019-02-27T07:27:03.099Z,99.90
2019-02-27T07:29:30.867Z,99.90
2019-02-27T07:32:02.445Z,99.90
2019-02-27T07:34:34.566Z,99.90
2019-02-27T07:37:06.613Z,99.90
2019-02-27T07:39:34.357Z,99.90
2019-02-27T07:42:03.952Z,99.90
2019-02-27T07:44:34.733Z,99.90
2019-02-27T07:47:02.867Z,99.90
2019-02-27T07:49:41.371Z,99.90
2019-02-27T07:52:26.818Z,99.00
2019-02-27T07:54:54.529Z,97.20
2019-02-27T07:57:39.877Z,97.10
2019-02-27T08:03:20.203Z,94.80
2019-02-27T08:05:48.747Z,94.40
2019-02-27T08:08:17.910Z,93.40
2019-02-27T08:10:48.029Z,93.60
2019-02-27T08:13:18.946Z,93.50
2019-02-27T08:15:49.167Z,92.00
2019-02-27T08:18:27.100Z,91.70
2019-02-27T08:20:48.142Z,90.50
2019-02-27T08:23:43.350Z,89.20
2019-02-27T08:26:14.610Z,90.80
2019-02-27T08:28:46.350Z,90.40
2019-02-27T08:31:16.696Z,85.90
2019-02-27T08:33:58.911Z,84.00
2019-02-27T08:36:43.230Z,83.90
2019-02-27T08:39:16.205Z,84.20
2019-02-27T08:42:31.948Z,81.80
2019-02-27T08:48:03.144Z,82.60
2019-02-27T08:50:40.791Z,80.60
2019-02-27T08:53:12.945Z,80.60
2019-02-27T08:55:50.529Z,81.40
2019-02-27T08:58:28.928Z,81.00
2019-02-27T09:00:56.828Z,77.50
2019-02-27T09:03:28.488Z,76.90
2019-02-27T09:05:58.743Z,78.00
2019-02-27T09:08:36.101Z,77.90
2019-02-27T09:11:07.872Z,74.50
2019-02-27T09:13:46.020Z,77.20
2019-02-27T09:17:06.869Z,83.90
2019-02-27T09:20:03.508Z,88.80
2019-02-27T09:22:53.186Z,91.10
2019-02-27T09:25:44.041Z,92.10
2019-02-27T09:28:13.923Z,92.40
2019-02-27T09:30:45.754Z,93.20
2019-02-27T09:33:21.462Z,93.40
2019-02-27T09:36:04.520Z,93.10
2019-02-27T09:38:32.408Z,93.00
2019-02-27T09:41:02.858Z,92.90
2019-02-27T09:43:32.359Z,93.00
2019-02-27T09:46:03.003Z,92.80
2019-02-27T09:48:33.405Z,92.50
2019-02-27T09:51:24.181Z,92.30
2019-02-27T09:53:57.355Z,92.20
2019-02-27T09:56:50.197Z,92.10
2019-02-27T09:59:20.406Z,92.10
2019-02-27T10:01:52.634Z,92.00
2019-02-27T10:04:29.075Z,91.60
2019-02-27T10:07:07.041Z,91.10
2019-02-27T10:09:47.812Z,91.00
2019-02-27T10:12:19.039Z,90.70
2019-02-27T10:14:51.150Z,90.10
2019-02-27T10:17:24.813Z,90.10
2019-02-27T10:20:05.777Z,89.60
2019-02-27T10:22:35.053Z,87.40
2019-02-27T10:25:08.553Z,86.80
2019-02-27T10:27:43.772Z,86.70
2019-02-27T10:30:12.323Z,86.40
2019-02-27T10:32:39.986Z,85.10
2019-02-27T10:35:09.859Z,84.60
2019-02-27T10:37:40.149Z,83.50
2019-02-27T10:40:11.440Z,83.40
2019-02-27T10:42:49.708Z,83.40
2019-02-27T10:45:53.874Z,83.90
2019-02-27T10:48:36.712Z,82.70
2019-02-27T10:51:09.459Z,82.30
2019-02-27T10:53:44.642Z,81.90
2019-02-27T10:56:17.534Z,81.90
2019-02-27T10:58:48.231Z,81.50
2019-02-27T11:02:01.001Z,77.90
2019-02-27T11:04:45.494Z,78.50
2019-02-27T11:07:29.411Z,78.60
2019-02-27T11:13:44.531Z,77.10
2019-02-27T11:16:50.057Z,74.10
2019-02-27T11:20:00.358Z,70.90
2019-02-27T11:26:19.143Z,68.20
2019-02-27T11:28:51.765Z,68.30
2019-02-27T11:31:48.114Z,67.90
2019-02-27T11:34:22.811Z,64.70
2019-02-27T11:37:14.314Z,63.40
2019-02-27T11:40:05.373Z,62.60
2019-02-27T11:43:33.919Z,61.40
2019-02-27T11:46:43.660Z,59.90
2019-02-27T11:49:55.786Z,58.00
2019-02-27T11:52:28.638Z,57.00
2019-02-27T11:55:41.931Z,53.50
2019-02-27T11:58:45.369Z,53.20
2019-02-27T12:01:27.946Z,53.80
2019-02-27T12:11:52.036Z,49.60
2019-02-27T12:17:51.000Z,46.40
2019-02-27T12:20:28.752Z,46.00
2019-02-27T12:23:12.742Z,45.40
2019-02-27T12:26:37.478Z,45.00
2019-02-27T12:29:26.484Z,45.00
2019-02-27T12:32:09.940Z,44.10
2019-02-27T12:34:47.959Z,43.20
2019-02-27T12:37:34.777Z,42.40
2019-02-27T12:40:24.059Z,43.60
2019-02-27T12:42:49.892Z,41.30
2019-02-27T12:45:25.725Z,41.60
2019-02-27T12:51:25.471Z,41.20
2019-02-27T12:53:54.570Z,41.20
2019-02-27T12:56:24.126Z,41.20
2019-02-27T12:59:12.605Z,40.50
2019-02-27T13:02:17.259Z,41.70
2019-02-27T13:05:42.011Z,39.50
2019-02-27T13:08:13.583Z,36.80
2019-02-27T13:11:22.391Z,38.00
2019-02-27T13:14:07.980Z,37.80
2019-02-27T13:16:50.800Z,36.00
2019-02-27T13:19:34.097Z,38.00
2019-02-27T13:22:29.139Z,38.50
2019-02-27T13:24:56.482Z,36.80
2019-02-27T13:27:35.268Z,35.40
2019-02-27T13:30:15.462Z,35.00
2019-02-27T13:33:01.139Z,35.90
2019-02-27T13:35:46.342Z,37.50
2019-02-27T13:38:18.592Z,37.10
2019-02-27T13:40:47.871Z,37.50
2019-02-27T13:43:48.656Z,36.70
2019-02-27T13:46:32.968Z,36.90
2019-02-27T13:49:26.684Z,37.20
2019-02-27T13:55:33.250Z,37.30
2019-02-27T13:58:26.037Z,38.40
2019-02-27T14:01:45.845Z,38.20
2019-02-27T14:04:47.793Z,37.70
2019-02-27T14:07:42.917Z,36.40
2019-02-27T14:10:29.779Z,36.80
2019-02-27T14:13:01.797Z,37.70
2019-02-27T14:15:33.846Z,35.90
2019-02-27T14:18:02.787Z,36.10
2019-02-27T14:20:35.692Z,36.40
2019-02-27T14:23:21.868Z,35.80
2019-02-27T14:25:51.220Z,34.90
2019-02-27T14:28:30.315Z,34.70
2019-02-27T14:31:31.636Z,34.50
2019-02-27T14:37:16.191Z,34.90
2019-02-27T14:39:44.539Z,36.00
2019-02-27T14:45:20.074Z,35.20
2019-02-27T14:47:56.381Z,35.70
2019-02-27T14:53:58.713Z,36.00
2019-02-27T14:56:49.438Z,35.90
2019-02-27T14:59:36.703Z,35.50
2019-02-27T15:02:57.255Z,35.80
2019-02-27T15:05:43.088Z,35.60
2019-02-27T15:08:57.651Z,35.10
2019-02-27T15:25:42.214Z,33.80
2019-02-27T15:28:08.229Z,34.40
2019-02-27T15:30:57.777Z,34.90
2019-02-27T15:33:43.221Z,34.90
2019-02-27T15:36:21.800Z,35.10
2019-02-27T15:52:51.431Z,35.70
2019-02-27T15:55:47.664Z,36.00
2019-02-27T15:58:37.894Z,36.60
2019-02-27T16:01:18.780Z,35.90
2019-02-27T16:08:23.581Z,36.50
2019-02-27T16:11:22.139Z,35.60
2019-02-27T16:13:57.291Z,35.70
2019-02-27T16:16:34.693Z,36.20
2019-02-27T16:19:02.325Z,35.60
2019-02-27T16:21:48.410Z,35.70
2019-02-27T16:24:18.520Z,35.80
2019-02-27T16:26:46.755Z,35.40
2019-02-27T16:29:15.587Z,36.50
2019-02-27T16:31:57.800Z,36.70
2019-02-27T16:34:41.481Z,37.10
2019-02-27T16:38:31.316Z,37.70
2019-02-27T16:41:29.523Z,38.30
2019-02-27T16:44:02.158Z,38.70
2019-02-27T16:47:07.260Z,39.20
2019-02-27T16:50:02.633Z,39.80
2019-02-27T16:52:35.120Z,40.00
2019-02-27T16:55:09.980Z,40.40
2019-02-27T16:58:33.082Z,40.90
2019-02-27T17:01:19.333Z,42.70
2019-02-27T17:04:00.580Z,44.70
2019-02-27T17:07:25.828Z,44.70
2019-02-27T17:10:44.427Z,45.60
2019-02-27T17:13:15.484Z,47.10
2019-02-27T17:15:44.250Z,47.40
2019-02-27T17:18:17.173Z,48.00
2019-02-27T17:20:46.581Z,48.50
2019-02-27T17:23:15.471Z,49.60
2019-02-27T17:25:43.446Z,49.10
2019-02-27T17:28:44.417Z,49.40
2019-02-27T17:31:20.940Z,49.70
2019-02-27T17:34:13.475Z,49.90
2019-02-27T17:36:50.889Z,49.90
2019-02-27T17:39:22.257Z,50.10
2019-02-27T17:41:49.574Z,51.10
2019-02-27T17:44:37.792Z,51.10
2019-02-27T17:47:38.520Z,51.20
2019-02-27T17:50:15.642Z,52.00
2019-02-27T17:56:32.236Z,53.00
2019-02-27T17:59:01.194Z,53.80
2019-02-27T18:01:28.837Z,54.70
2019-02-27T18:04:31.576Z,54.90
2019-02-27T18:07:33.959Z,55.70
2019-02-27T18:10:07.290Z,56.20
2019-02-27T18:12:51.490Z,57.40
2019-02-27T18:15:28.857Z,57.90
2019-02-27T18:18:30.019Z,58.10
2019-02-27T18:21:50.952Z,58.80
2019-02-27T18:24:39.513Z,58.70
2019-02-27T18:27:25.401Z,59.10
2019-02-27T18:30:25.999Z,59.60
2019-02-27T18:37:22.317Z,62.00
2019-02-27T18:40:28.038Z,62.70
2019-02-27T18:42:58.513Z,64.20
2019-02-27T18:45:32.484Z,64.90
2019-02-27T18:48:10.079Z,65.30
2019-02-27T18:51:05.809Z,65.90
2019-02-27T18:53:34.762Z,66.40
2019-02-27T18:56:07.844Z,67.40
2019-02-27T18:58:36.638Z,68.10
2019-02-27T19:01:09.834Z,68.50
2019-02-27T19:03:39.788Z,69.40
2019-02-27T19:06:12.107Z,69.90
2019-02-27T19:09:07.945Z,70.40
2019-02-27T19:11:50.961Z,70.70
2019-02-27T19:15:04.110Z,71.40
2019-02-27T19:17:40.800Z,72.30
2019-02-27T19:20:13.444Z,73.00
2019-02-27T19:23:00.273Z,74.50
2019-02-27T19:26:10.056Z,73.80
2019-02-27T19:29:10.175Z,74.60
2019-02-27T19:31:51.639Z,75.10
2019-02-27T19:34:22.772Z,76.00
2019-02-27T19:37:14.593Z,75.40
2019-02-27T19:39:45.147Z,75.50
2019-02-27T19:42:17.281Z,76.00
2019-02-27T19:45:07.994Z,76.80
2019-02-27T19:47:54.524Z,76.60
2019-02-27T19:50:25.331Z,76.60
2019-02-27T19:53:17.267Z,76.70
2019-02-27T19:55:46.228Z,76.80
2019-02-27T19:58:30.845Z,77.30
2019-02-27T20:01:31.491Z,77.60
2019-02-27T20:04:08.995Z,78.00
2019-02-27T20:06:51.324Z,78.80
2019-02-27T20:16:38.321Z,80.50
2019-02-27T20:19:22.578Z,81.70
2019-02-27T20:21:51.453Z,82.40
2019-02-27T20:24:20.126Z,82.80
2019-02-27T20:27:05.320Z,83.20
2019-02-27T20:29:39.452Z,83.30
2019-02-27T20:32:03.808Z,84.50
2019-02-27T20:34:35.001Z,85.20
2019-02-27T20:37:08.914Z,85.90
2019-02-27T20:39:38.906Z,86.50
2019-02-27T20:42:07.154Z,87.10
2019-02-27T20:44:48.991Z,87.60
2019-02-27T20:47:16.695Z,88.00
2019-02-27T20:49:47.802Z,88.20
2019-02-27T20:52:21.987Z,89.10
2019-02-27T20:54:52.889Z,89.60
2019-02-27T20:58:02.357Z,90.00
2019-02-27T21:00:47.739Z,90.10
2019-02-27T21:03:15.307Z,90.30
2019-02-27T21:05:44.406Z,90.70
2019-02-27T21:08:13.278Z,91.00
2019-02-27T21:10:42.577Z,91.40
2019-02-27T21:13:17.669Z,91.70
2019-02-27T21:15:49.489Z,91.90
2019-02-27T21:18:19.546Z,92.20
2019-02-27T21:20:50.849Z,92.50
2019-02-27T21:23:19.354Z,92.70
2019-02-27T21:28:44.657Z,92.90
2019-02-27T21:31:17.399Z,93.10
2019-02-27T21:33:46.554Z,93.20
2019-02-27T21:36:19.253Z,93.40
2019-02-27T21:38:47.531Z,93.60
2019-02-27T21:41:28.952Z,93.70
2019-02-27T21:44:25.275Z,93.90
2019-02-27T21:46:49.806Z,94.30
2019-02-27T21:49:18.649Z,94.80
2019-02-27T21:51:50.451Z,95.00
2019-02-27T21:54:19.869Z,95.30
2019-02-27T21:56:52.569Z,95.80
2019-02-27T21:59:20.778Z,96.20
2019-02-27T22:02:18.588Z,96.60
2019-02-27T22:04:46.198Z,96.90
2019-02-27T22:07:15.216Z,97.10
2019-02-27T22:09:45.511Z,97.30
2019-02-27T22:12:20.723Z,97.50
2019-02-27T22:14:51.611Z,97.60
2019-02-27T22:17:23.305Z,98.00
2019-02-27T22:20:14.036Z,98.30
2019-02-27T22:22:42.387Z,98.50
2019-02-27T22:25:10.917Z,98.80
2019-02-27T22:27:49.935Z,98.90
2019-02-27T22:30:17.849Z,98.90
2019-02-27T22:32:48.843Z,99.30
2019-02-27T22:35:19.569Z,99.60
2019-02-27T22:37:52.392Z,99.80
2019-02-27T22:40:19.729Z,99.90
2019-02-27T22:42:48.623Z,99.90
2019-02-27T22:45:21.534Z,99.90
2019-02-27T22:47:53.865Z,99.90
2019-02-27T22:50:22.493Z,99.90
2019-02-27T22:52:59.330Z,99.90
2019-02-27T22:55:31.066Z,99.90
2019-02-27T22:58:01.154Z,99.90
2019-02-27T23:01:03.841Z,99.90
2019-02-27T23:03:54.992Z,99.90
2019-02-27T23:06:23.458Z,99.90
2019-02-27T23:08:54.424Z,99.90
2019-02-27T23:11:25.079Z,99.90
2019-02-27T23:13:53.045Z,99.90
2019-02-27T23:16:29.728Z,99.90
2019-02-27T23:19:03.161Z,99.90
2019-02-27T23:21:58.501Z,99.90
2019-02-27T23:24:38.101Z,99.90
2019-02-27T23:27:16.359Z,99.90
2019-02-27T23:32:39.913Z,99.90
2019-02-27T23:45:15.533Z,99.90
2019-02-27T23:51:09.521Z,99.90
2019-02-27T23:53:38.460Z,99.90
2019-02-27T23:56:07.702Z,99.90
2019-02-27T23:58:46.812Z,99.90
